Seychelles International Airport
FSIA : now visible

Airfield :











YOU CAN JOIN US ON...

 
LOGIN :

Register | Disclaimer

   EN    FR    IT 

 









Legend :    VFR   Marginal VFR   IFR   Intensive IFR   Very Intensive IFR
Visi :
Ceiling :
>= 8 km
>= 3000ft
5 to 8 km
1000 to 3000 ft
1500m to 5 km
500 to 1000 ft
800 to 1500m
200 to 500 ft
< 800m
< 200 ft
Symbols :   Thunderstorms  Fog  Heavy snow  Heavy precipitations  Wind > 20 kt






- Airport Elevation : 10 ft
- IATA code : SEZ


FSIA - Seychelles International

CURRENT METAR :
  • 252200Z 20003KT 170V240 9999 FEW022 26/24 Q1012 NOSIG

EXPIRED METARs :
  • 252100Z VRB02KT 9999 FEW022 27/24 Q1012 NOSIG
  • 252000Z 25004KT 9999 FEW022 27/25 Q1013 NOSIG

TAF TAF FSIA
Valid from the 25 at 18:00 until the 26 at 18:00 UTC


251706Z 2518/2618 VRB03KT 9999 FEW018CB SCT020
PROB40
TEMPO 2520/2604 8000 -SHRA FEW016CB BKN018
BECMG 2604/2606 24005KT SCT020



MET'MAP, your aeronautical weather chart ! - Copyright ORBIFLY December 2007 - Disclaimer

ORBIFLY MET'MAP TEAM :

Programming & Development : Alexandra Zaïnal
Concept & original design : Baudouin d'Aumeries
Assistance for programming : Marc-Olivier Méhu
Technical & hardware support : Manuel Goepfert

Contact : metmap@orbifly.com




SOURCES & CREDITS :

   NOAA       Earth
Advisory